sensor_id;sensor_type;location;lat;lon;timestamp;P1;durP1;ratioP1;P2;durP2;ratioP2
45128;SDS011;35512;56.312;101.728;2023-03-21T00:01:58;0.80;;;0.80;;
45128;SDS011;35512;56.312;101.728;2023-03-21T00:04:28;1.00;;;0.90;;
45128;SDS011;35512;56.312;101.728;2023-03-21T00:07:11;0.80;;;0.80;;
45128;SDS011;35512;56.312;101.728;2023-03-21T00:09:40;0.77;;;0.77;;
45128;SDS011;35512;56.312;101.728;2023-03-21T00:12:09;0.80;;;0.80;;
45128;SDS011;35512;56.312;101.728;2023-03-21T00:14:38;0.80;;;0.80;;
45128;SDS011;35512;56.312;101.728;2023-03-21T00:17:08;0.80;;;0.80;;
45128;SDS011;35512;56.312;101.728;2023-03-21T00:19:38;0.80;;;0.80;;
45128;SDS011;35512;56.312;101.728;2023-03-21T00:22:08;0.80;;;0.80;;
45128;SDS011;35512;56.312;101.728;2023-03-21T00:24:37;0.80;;;0.80;;
45128;SDS011;35512;56.312;101.728;2023-03-21T00:27:06;0.80;;;0.80;;
45128;SDS011;35512;56.312;101.728;2023-03-21T00:29:55;0.80;;;0.80;;
45128;SDS011;35512;56.312;101.728;2023-03-21T00:32:24;0.77;;;0.77;;
45128;SDS011;35512;56.312;101.728;2023-03-21T00:34:53;0.70;;;0.70;;
45128;SDS011;35512;56.312;101.728;2023-03-21T00:37:44;0.70;;;0.70;;
45128;SDS011;35512;56.312;101.728;2023-03-21T00:40:13;0.80;;;0.80;;
45128;SDS011;35512;56.312;101.728;2023-03-21T00:42:55;0.70;;;0.70;;
45128;SDS011;35512;56.312;101.728;2023-03-21T00:45:25;0.80;;;0.80;;
45128;SDS011;35512;56.312;101.728;2023-03-21T00:47:54;0.70;;;0.70;;
45128;SDS011;35512;56.312;101.728;2023-03-21T00:50:24;0.70;;;0.70;;
45128;SDS011;35512;56.312;101.728;2023-03-21T00:52:54;0.80;;;0.80;;
45128;SDS011;35512;56.312;101.728;2023-03-21T00:55:24;0.80;;;0.80;;
45128;SDS011;35512;56.312;101.728;2023-03-21T00:57:53;0.70;;;0.70;;
45128;SDS011;35512;56.312;101.728;2023-03-21T01:00:29;0.70;;;0.70;;
45128;SDS011;35512;56.312;101.728;2023-03-21T01:03:03;0.70;;;0.70;;
45128;SDS011;35512;56.312;101.728;2023-03-21T01:05:49;0.70;;;0.70;;
45128;SDS011;35512;56.312;101.728;2023-03-21T01:08:33;0.70;;;0.70;;
45128;SDS011;35512;56.312;101.728;2023-03-21T01:11:19;0.70;;;0.70;;
45128;SDS011;35512;56.312;101.728;2023-03-21T01:13:53;0.60;;;0.60;;
45128;SDS011;35512;56.312;101.728;2023-03-21T01:16:41;0.60;;;0.60;;
45128;SDS011;35512;56.312;101.728;2023-03-21T01:19:12;0.50;;;0.50;;
45128;SDS011;35512;56.312;101.728;2023-03-21T01:21:53;0.50;;;0.50;;
45128;SDS011;35512;56.312;101.728;2023-03-21T01:24:24;0.50;;;0.50;;
45128;SDS011;35512;56.312;101.728;2023-03-21T01:26:52;0.50;;;0.50;;
45128;SDS011;35512;56.312;101.728;2023-03-21T01:29:21;0.40;;;0.40;;
45128;SDS011;35512;56.312;101.728;2023-03-21T01:31:50;0.50;;;0.50;;
45128;SDS011;35512;56.312;101.728;2023-03-21T01:34:20;0.50;;;0.50;;
45128;SDS011;35512;56.312;101.728;2023-03-21T01:36:49;0.50;;;0.50;;
45128;SDS011;35512;56.312;101.728;2023-03-21T01:39:19;0.45;;;0.45;;
45128;SDS011;35512;56.312;101.728;2023-03-21T01:41:50;0.40;;;0.40;;
45128;SDS011;35512;56.312;101.728;2023-03-21T01:44:24;0.50;;;0.50;;
45128;SDS011;35512;56.312;101.728;2023-03-21T01:46:54;0.50;;;0.50;;
45128;SDS011;35512;56.312;101.728;2023-03-21T01:49:58;0.50;;;0.50;;
45128;SDS011;35512;56.312;101.728;2023-03-21T01:52:43;0.50;;;0.50;;
45128;SDS011;35512;56.312;101.728;2023-03-21T01:55:17;0.50;;;0.50;;
45128;SDS011;35512;56.312;101.728;2023-03-21T01:58:18;0.50;;;0.50;;
45128;SDS011;35512;56.312;101.728;2023-03-21T02:01:26;0.40;;;0.40;;
45128;SDS011;35512;56.312;101.728;2023-03-21T02:03:57;0.40;;;0.40;;
45128;SDS011;35512;56.312;101.728;2023-03-21T02:09:23;0.40;;;0.40;;
45128;SDS011;35512;56.312;101.728;2023-03-21T02:11:55;0.43;;;0.43;;
45128;SDS011;35512;56.312;101.728;2023-03-21T02:14:29;0.50;;;0.50;;
45128;SDS011;35512;56.312;101.728;2023-03-21T02:38:02;0.50;;;0.50;;
45128;SDS011;35512;56.312;101.728;2023-03-21T02:43:17;0.50;;;0.50;;
45128;SDS011;35512;56.312;101.728;2023-03-21T02:46:07;0.40;;;0.40;;
45128;SDS011;35512;56.312;101.728;2023-03-21T02:49:02;0.32;;;0.32;;
45128;SDS011;35512;56.312;101.728;2023-03-21T02:51:42;0.40;;;0.40;;
45128;SDS011;35512;56.312;101.728;2023-03-21T02:54:15;0.50;;;0.50;;
45128;SDS011;35512;56.312;101.728;2023-03-21T02:57:06;0.50;;;0.50;;
45128;SDS011;35512;56.312;101.728;2023-03-21T02:59:36;0.50;;;0.50;;
45128;SDS011;35512;56.312;101.728;2023-03-21T03:02:27;0.50;;;0.50;;
45128;SDS011;35512;56.312;101.728;2023-03-21T03:04:56;0.50;;;0.50;;
45128;SDS011;35512;56.312;101.728;2023-03-21T03:07:47;0.50;;;0.50;;
45128;SDS011;35512;56.312;101.728;2023-03-21T03:11:00;0.30;;;0.30;;
45128;SDS011;35512;56.312;101.728;2023-03-21T03:13:43;0.50;;;0.50;;
45128;SDS011;35512;56.312;101.728;2023-03-21T03:16:58;0.50;;;0.50;;
45128;SDS011;35512;56.312;101.728;2023-03-21T03:25:15;0.40;;;0.40;;
45128;SDS011;35512;56.312;101.728;2023-03-21T03:28:06;0.40;;;0.40;;
45128;SDS011;35512;56.312;101.728;2023-03-21T03:30:36;0.40;;;0.40;;
45128;SDS011;35512;56.312;101.728;2023-03-21T03:33:19;0.40;;;0.40;;
45128;SDS011;35512;56.312;101.728;2023-03-21T03:35:50;0.60;;;0.60;;
45128;SDS011;35512;56.312;101.728;2023-03-21T03:38:33;0.50;;;0.50;;
45128;SDS011;35512;56.312;101.728;2023-03-21T03:41:07;0.60;;;0.60;;
45128;SDS011;35512;56.312;101.728;2023-03-21T03:43:54;0.60;;;0.60;;
45128;SDS011;35512;56.312;101.728;2023-03-21T03:46:29;0.50;;;0.50;;
45128;SDS011;35512;56.312;101.728;2023-03-21T03:49:01;0.30;;;0.30;;
45128;SDS011;35512;56.312;101.728;2023-03-21T03:54:44;0.40;;;0.40;;
45128;SDS011;35512;56.312;101.728;2023-03-21T03:57:18;0.40;;;0.40;;
45128;SDS011;35512;56.312;101.728;2023-03-21T03:59:47;0.50;;;0.50;;
45128;SDS011;35512;56.312;101.728;2023-03-21T04:02:19;0.50;;;0.50;;
45128;SDS011;35512;56.312;101.728;2023-03-21T04:04:49;0.40;;;0.40;;
45128;SDS011;35512;56.312;101.728;2023-03-21T04:07:21;0.50;;;0.50;;
45128;SDS011;35512;56.312;101.728;2023-03-21T04:09:53;0.50;;;0.50;;
45128;SDS011;35512;56.312;101.728;2023-03-21T04:12:22;0.40;;;0.40;;
45128;SDS011;35512;56.312;101.728;2023-03-21T04:15:04;0.47;;;0.47;;
45128;SDS011;35512;56.312;101.728;2023-03-21T04:17:45;0.50;;;0.50;;
45128;SDS011;35512;56.312;101.728;2023-03-21T04:20:14;0.30;;;0.30;;
45128;SDS011;35512;56.312;101.728;2023-03-21T04:23:02;0.50;;;0.50;;
45128;SDS011;35512;56.312;101.728;2023-03-21T04:25:33;0.40;;;0.40;;
45128;SDS011;35512;56.312;101.728;2023-03-21T04:28:07;0.50;;;0.50;;
45128;SDS011;35512;56.312;101.728;2023-03-21T04:30:43;0.40;;;0.40;;
45128;SDS011;35512;56.312;101.728;2023-03-21T04:35:59;0.40;;;0.40;;
45128;SDS011;35512;56.312;101.728;2023-03-21T04:38:31;0.40;;;0.40;;
45128;SDS011;35512;56.312;101.728;2023-03-21T04:41:03;0.50;;;0.50;;
45128;SDS011;35512;56.312;101.728;2023-03-21T04:43:32;0.40;;;0.40;;
45128;SDS011;35512;56.312;101.728;2023-03-21T04:46:01;0.30;;;0.30;;
45128;SDS011;35512;56.312;101.728;2023-03-21T04:48:33;0.45;;;0.45;;
45128;SDS011;35512;56.312;101.728;2023-03-21T04:51:02;0.30;;;0.30;;
45128;SDS011;35512;56.312;101.728;2023-03-21T04:53:31;0.30;;;0.30;;
45128;SDS011;35512;56.312;101.728;2023-03-21T04:56:00;0.50;;;0.50;;
45128;SDS011;35512;56.312;101.728;2023-03-21T04:58:29;0.50;;;0.50;;
45128;SDS011;35512;56.312;101.728;2023-03-21T05:00:59;0.50;;;0.50;;
45128;SDS011;35512;56.312;101.728;2023-03-21T05:03:30;0.50;;;0.50;;
45128;SDS011;35512;56.312;101.728;2023-03-21T05:06:02;0.50;;;0.50;;
45128;SDS011;35512;56.312;101.728;2023-03-21T05:08:31;0.50;;;0.50;;
45128;SDS011;35512;56.312;101.728;2023-03-21T05:11:00;0.50;;;0.50;;
45128;SDS011;35512;56.312;101.728;2023-03-21T05:13:30;0.50;;;0.50;;
45128;SDS011;35512;56.312;101.728;2023-03-21T05:15:59;0.50;;;0.50;;
45128;SDS011;35512;56.312;101.728;2023-03-21T05:18:28;0.50;;;0.50;;
45128;SDS011;35512;56.312;101.728;2023-03-21T05:21:09;0.50;;;0.50;;
45128;SDS011;35512;56.312;101.728;2023-03-21T05:23:42;0.50;;;0.50;;
45128;SDS011;35512;56.312;101.728;2023-03-21T05:26:11;0.30;;;0.30;;
45128;SDS011;35512;56.312;101.728;2023-03-21T05:28:51;0.30;;;0.30;;
45128;SDS011;35512;56.312;101.728;2023-03-21T05:31:21;0.30;;;0.30;;
45128;SDS011;35512;56.312;101.728;2023-03-21T05:33:56;0.30;;;0.30;;
45128;SDS011;35512;56.312;101.728;2023-03-21T05:36:27;0.45;;;0.45;;
45128;SDS011;35512;56.312;101.728;2023-03-21T05:38:56;0.50;;;0.50;;
45128;SDS011;35512;56.312;101.728;2023-03-21T05:41:25;0.40;;;0.40;;
45128;SDS011;35512;56.312;101.728;2023-03-21T05:43:53;0.50;;;0.50;;
45128;SDS011;35512;56.312;101.728;2023-03-21T05:46:23;0.50;;;0.50;;
45128;SDS011;35512;56.312;101.728;2023-03-21T05:48:54;0.50;;;0.50;;
45128;SDS011;35512;56.312;101.728;2023-03-21T05:51:25;0.50;;;0.50;;
45128;SDS011;35512;56.312;101.728;2023-03-21T05:53:55;0.50;;;0.50;;
45128;SDS011;35512;56.312;101.728;2023-03-21T05:56:25;0.50;;;0.50;;
45128;SDS011;35512;56.312;101.728;2023-03-21T05:58:58;0.43;;;0.43;;
45128;SDS011;35512;56.312;101.728;2023-03-21T06:01:29;0.40;;;0.40;;
45128;SDS011;35512;56.312;101.728;2023-03-21T06:04:10;0.50;;;0.50;;
45128;SDS011;35512;56.312;101.728;2023-03-21T06:06:39;0.40;;;0.40;;
45128;SDS011;35512;56.312;101.728;2023-03-21T06:09:09;0.50;;;0.50;;
45128;SDS011;35512;56.312;101.728;2023-03-21T06:11:42;0.50;;;0.50;;
45128;SDS011;35512;56.312;101.728;2023-03-21T06:14:32;0.50;;;0.50;;
45128;SDS011;35512;56.312;101.728;2023-03-21T06:17:14;0.40;;;0.40;;
45128;SDS011;35512;56.312;101.728;2023-03-21T06:20:05;0.40;;;0.40;;
45128;SDS011;35512;56.312;101.728;2023-03-21T06:22:52;0.40;;;0.40;;
45128;SDS011;35512;56.312;101.728;2023-03-21T06:25:21;0.40;;;0.40;;
45128;SDS011;35512;56.312;101.728;2023-03-21T06:27:50;0.40;;;0.40;;
45128;SDS011;35512;56.312;101.728;2023-03-21T06:30:20;0.40;;;0.40;;
45128;SDS011;35512;56.312;101.728;2023-03-21T06:33:12;0.40;;;0.40;;
45128;SDS011;35512;56.312;101.728;2023-03-21T06:35:42;0.50;;;0.50;;
45128;SDS011;35512;56.312;101.728;2023-03-21T06:38:11;0.40;;;0.40;;
45128;SDS011;35512;56.312;101.728;2023-03-21T06:40:40;0.40;;;0.40;;
45128;SDS011;35512;56.312;101.728;2023-03-21T06:43:09;0.40;;;0.40;;
45128;SDS011;35512;56.312;101.728;2023-03-21T06:45:38;0.40;;;0.40;;
45128;SDS011;35512;56.312;101.728;2023-03-21T06:48:10;0.40;;;0.40;;
45128;SDS011;35512;56.312;101.728;2023-03-21T06:50:57;0.40;;;0.40;;
45128;SDS011;35512;56.312;101.728;2023-03-21T06:53:28;0.40;;;0.40;;
45128;SDS011;35512;56.312;101.728;2023-03-21T06:56:20;0.40;;;0.40;;
45128;SDS011;35512;56.312;101.728;2023-03-21T06:58:49;0.40;;;0.40;;
45128;SDS011;35512;56.312;101.728;2023-03-21T07:01:38;0.40;;;0.40;;
45128;SDS011;35512;56.312;101.728;2023-03-21T07:04:10;0.50;;;0.50;;
45128;SDS011;35512;56.312;101.728;2023-03-21T07:06:39;0.40;;;0.40;;
45128;SDS011;35512;56.312;101.728;2023-03-21T07:09:07;0.40;;;0.40;;
45128;SDS011;35512;56.312;101.728;2023-03-21T07:11:39;0.40;;;0.40;;
45128;SDS011;35512;56.312;101.728;2023-03-21T07:14:09;0.40;;;0.40;;
45128;SDS011;35512;56.312;101.728;2023-03-21T07:16:39;0.40;;;0.40;;
45128;SDS011;35512;56.312;101.728;2023-03-21T07:19:08;0.40;;;0.40;;
45128;SDS011;35512;56.312;101.728;2023-03-21T07:21:37;0.40;;;0.40;;
45128;SDS011;35512;56.312;101.728;2023-03-21T07:24:06;0.30;;;0.30;;
45128;SDS011;35512;56.312;101.728;2023-03-21T07:26:37;0.30;;;0.30;;
45128;SDS011;35512;56.312;101.728;2023-03-21T07:29:06;0.30;;;0.30;;
45128;SDS011;35512;56.312;101.728;2023-03-21T07:31:36;0.40;;;0.40;;
45128;SDS011;35512;56.312;101.728;2023-03-21T07:34:07;0.35;;;0.35;;
45128;SDS011;35512;56.312;101.728;2023-03-21T07:36:36;0.40;;;0.40;;
45128;SDS011;35512;56.312;101.728;2023-03-21T07:39:06;0.40;;;0.40;;
45128;SDS011;35512;56.312;101.728;2023-03-21T07:41:35;0.30;;;0.30;;
45128;SDS011;35512;56.312;101.728;2023-03-21T07:44:18;0.40;;;0.40;;
45128;SDS011;35512;56.312;101.728;2023-03-21T07:46:47;0.40;;;0.40;;
45128;SDS011;35512;56.312;101.728;2023-03-21T07:49:18;0.40;;;0.40;;
45128;SDS011;35512;56.312;101.728;2023-03-21T07:51:47;0.30;;;0.30;;
45128;SDS011;35512;56.312;101.728;2023-03-21T07:54:16;0.40;;;0.40;;
45128;SDS011;35512;56.312;101.728;2023-03-21T07:56:48;0.40;;;0.40;;
45128;SDS011;35512;56.312;101.728;2023-03-21T07:59:16;0.40;;;0.40;;
45128;SDS011;35512;56.312;101.728;2023-03-21T08:01:46;0.40;;;0.40;;
45128;SDS011;35512;56.312;101.728;2023-03-21T08:04:15;0.40;;;0.40;;
45128;SDS011;35512;56.312;101.728;2023-03-21T08:06:44;0.40;;;0.40;;
45128;SDS011;35512;56.312;101.728;2023-03-21T08:09:13;0.50;;;0.50;;
45128;SDS011;35512;56.312;101.728;2023-03-21T08:11:42;0.40;;;0.40;;
45128;SDS011;35512;56.312;101.728;2023-03-21T08:14:10;0.30;;;0.30;;
45128;SDS011;35512;56.312;101.728;2023-03-21T08:16:39;0.30;;;0.30;;
45128;SDS011;35512;56.312;101.728;2023-03-21T08:19:08;0.40;;;0.40;;
45128;SDS011;35512;56.312;101.728;2023-03-21T08:21:37;0.40;;;0.40;;
45128;SDS011;35512;56.312;101.728;2023-03-21T08:24:06;0.40;;;0.40;;
45128;SDS011;35512;56.312;101.728;2023-03-21T08:26:35;0.40;;;0.40;;
45128;SDS011;35512;56.312;101.728;2023-03-21T08:29:05;0.40;;;0.40;;
45128;SDS011;35512;56.312;101.728;2023-03-21T08:31:34;0.30;;;0.30;;
45128;SDS011;35512;56.312;101.728;2023-03-21T08:34:03;0.30;;;0.30;;
45128;SDS011;35512;56.312;101.728;2023-03-21T08:36:32;0.38;;;0.38;;
45128;SDS011;35512;56.312;101.728;2023-03-21T08:39:04;0.30;;;0.30;;
45128;SDS011;35512;56.312;101.728;2023-03-21T08:41:34;0.40;;;0.40;;
45128;SDS011;35512;56.312;101.728;2023-03-21T08:44:04;0.40;;;0.40;;
45128;SDS011;35512;56.312;101.728;2023-03-21T08:46:34;0.40;;;0.40;;
45128;SDS011;35512;56.312;101.728;2023-03-21T08:49:02;0.30;;;0.30;;
45128;SDS011;35512;56.312;101.728;2023-03-21T08:51:31;0.40;;;0.40;;
45128;SDS011;35512;56.312;101.728;2023-03-21T08:54:00;0.40;;;0.40;;
45128;SDS011;35512;56.312;101.728;2023-03-21T08:56:29;0.40;;;0.40;;
45128;SDS011;35512;56.312;101.728;2023-03-21T08:58:58;0.40;;;0.40;;
45128;SDS011;35512;56.312;101.728;2023-03-21T09:01:30;0.40;;;0.40;;
45128;SDS011;35512;56.312;101.728;2023-03-21T09:04:00;0.40;;;0.40;;
45128;SDS011;35512;56.312;101.728;2023-03-21T09:06:28;0.50;;;0.50;;
45128;SDS011;35512;56.312;101.728;2023-03-21T09:08:58;0.50;;;0.50;;
45128;SDS011;35512;56.312;101.728;2023-03-21T09:11:27;0.40;;;0.40;;
45128;SDS011;35512;56.312;101.728;2023-03-21T09:13:56;0.47;;;0.47;;
45128;SDS011;35512;56.312;101.728;2023-03-21T09:16:25;0.40;;;0.40;;
45128;SDS011;35512;56.312;101.728;2023-03-21T09:18:54;0.40;;;0.40;;
45128;SDS011;35512;56.312;101.728;2023-03-21T09:21:24;0.50;;;0.50;;
45128;SDS011;35512;56.312;101.728;2023-03-21T09:23:55;0.50;;;0.50;;
45128;SDS011;35512;56.312;101.728;2023-03-21T09:26:26;0.60;;;0.60;;
45128;SDS011;35512;56.312;101.728;2023-03-21T09:28:55;0.50;;;0.50;;
45128;SDS011;35512;56.312;101.728;2023-03-21T09:31:26;0.50;;;0.50;;
45128;SDS011;35512;56.312;101.728;2023-03-21T09:33:55;0.50;;;0.50;;
45128;SDS011;35512;56.312;101.728;2023-03-21T09:36:25;0.50;;;0.50;;
45128;SDS011;35512;56.312;101.728;2023-03-21T09:38:54;0.50;;;0.50;;
45128;SDS011;35512;56.312;101.728;2023-03-21T09:41:28;0.50;;;0.50;;
45128;SDS011;35512;56.312;101.728;2023-03-21T09:47:04;0.60;;;0.60;;
45128;SDS011;35512;56.312;101.728;2023-03-21T09:49:41;0.57;;;0.57;;
45128;SDS011;35512;56.312;101.728;2023-03-21T09:52:29;0.57;;;0.57;;
45128;SDS011;35512;56.312;101.728;2023-03-21T09:55:27;0.55;;;0.55;;
45128;SDS011;35512;56.312;101.728;2023-03-21T09:58:01;0.60;;;0.60;;
45128;SDS011;35512;56.312;101.728;2023-03-21T10:00:38;0.60;;;0.60;;
45128;SDS011;35512;56.312;101.728;2023-03-21T10:03:18;0.60;;;0.60;;
45128;SDS011;35512;56.312;101.728;2023-03-21T10:05:53;0.60;;;0.60;;
45128;SDS011;35512;56.312;101.728;2023-03-21T10:08:30;0.60;;;0.60;;
45128;SDS011;35512;56.312;101.728;2023-03-21T10:13:41;0.60;;;0.60;;
45128;SDS011;35512;56.312;101.728;2023-03-21T10:16:41;0.60;;;0.60;;
45128;SDS011;35512;56.312;101.728;2023-03-21T10:19:16;0.60;;;0.60;;
45128;SDS011;35512;56.312;101.728;2023-03-21T10:21:46;0.60;;;0.60;;
45128;SDS011;35512;56.312;101.728;2023-03-21T10:24:32;0.60;;;0.60;;
45128;SDS011;35512;56.312;101.728;2023-03-21T10:27:02;0.60;;;0.60;;
45128;SDS011;35512;56.312;101.728;2023-03-21T10:29:35;0.60;;;0.60;;
45128;SDS011;35512;56.312;101.728;2023-03-21T10:32:12;0.60;;;0.60;;
45128;SDS011;35512;56.312;101.728;2023-03-21T10:34:45;0.55;;;0.55;;
45128;SDS011;35512;56.312;101.728;2023-03-21T10:37:18;0.52;;;0.52;;
45128;SDS011;35512;56.312;101.728;2023-03-21T10:39:48;0.60;;;0.60;;
45128;SDS011;35512;56.312;101.728;2023-03-21T10:42:23;0.60;;;0.60;;
45128;SDS011;35512;56.312;101.728;2023-03-21T10:44:55;0.60;;;0.60;;
45128;SDS011;35512;56.312;101.728;2023-03-21T10:47:31;0.60;;;0.60;;
45128;SDS011;35512;56.312;101.728;2023-03-21T10:50:06;0.60;;;0.60;;
45128;SDS011;35512;56.312;101.728;2023-03-21T10:52:44;0.60;;;0.60;;
45128;SDS011;35512;56.312;101.728;2023-03-21T10:58:03;0.57;;;0.57;;
45128;SDS011;35512;56.312;101.728;2023-03-21T11:00:37;0.70;;;0.70;;
45128;SDS011;35512;56.312;101.728;2023-03-21T11:03:26;0.60;;;0.60;;
45128;SDS011;35512;56.312;101.728;2023-03-21T11:06:01;0.60;;;0.60;;
45128;SDS011;35512;56.312;101.728;2023-03-21T11:08:38;0.70;;;0.70;;
45128;SDS011;35512;56.312;101.728;2023-03-21T11:11:35;0.70;;;0.70;;
45128;SDS011;35512;56.312;101.728;2023-03-21T11:14:07;0.60;;;0.60;;
45128;SDS011;35512;56.312;101.728;2023-03-21T11:16:51;0.70;;;0.70;;
45128;SDS011;35512;56.312;101.728;2023-03-21T11:19:30;0.60;;;0.60;;
45128;SDS011;35512;56.312;101.728;2023-03-21T11:22:06;0.70;;;0.70;;
45128;SDS011;35512;56.312;101.728;2023-03-21T11:24:36;0.70;;;0.70;;
45128;SDS011;35512;56.312;101.728;2023-03-21T11:27:05;0.70;;;0.70;;
45128;SDS011;35512;56.312;101.728;2023-03-21T11:29:39;0.70;;;0.70;;
45128;SDS011;35512;56.312;101.728;2023-03-21T11:32:25;0.70;;;0.70;;
45128;SDS011;35512;56.312;101.728;2023-03-21T11:35:13;0.70;;;0.70;;
45128;SDS011;35512;56.312;101.728;2023-03-21T11:37:51;0.70;;;0.70;;
45128;SDS011;35512;56.312;101.728;2023-03-21T11:40:35;0.70;;;0.70;;
45128;SDS011;35512;56.312;101.728;2023-03-21T11:45:55;0.70;;;0.70;;
45128;SDS011;35512;56.312;101.728;2023-03-21T11:48:24;0.70;;;0.70;;
45128;SDS011;35512;56.312;101.728;2023-03-21T11:51:38;0.70;;;0.70;;
45128;SDS011;35512;56.312;101.728;2023-03-21T11:56:48;0.70;;;0.70;;
45128;SDS011;35512;56.312;101.728;2023-03-21T12:05:39;0.70;;;0.70;;
45128;SDS011;35512;56.312;101.728;2023-03-21T12:10:48;0.70;;;0.70;;
45128;SDS011;35512;56.312;101.728;2023-03-21T12:13:33;0.70;;;0.70;;
45128;SDS011;35512;56.312;101.728;2023-03-21T12:25:32;0.70;;;0.70;;
45128;SDS011;35512;56.312;101.728;2023-03-21T12:31:12;0.70;;;0.70;;
45128;SDS011;35512;56.312;101.728;2023-03-21T12:33:57;0.70;;;0.70;;
45128;SDS011;35512;56.312;101.728;2023-03-21T12:39:23;0.75;;;0.75;;
45128;SDS011;35512;56.312;101.728;2023-03-21T12:45:19;0.70;;;0.70;;
45128;SDS011;35512;56.312;101.728;2023-03-21T12:48:08;0.77;;;0.77;;
45128;SDS011;35512;56.312;101.728;2023-03-21T12:50:39;0.70;;;0.70;;
45128;SDS011;35512;56.312;101.728;2023-03-21T12:56:14;0.70;;;0.70;;
45128;SDS011;35512;56.312;101.728;2023-03-21T12:58:51;0.70;;;0.70;;
45128;SDS011;35512;56.312;101.728;2023-03-21T13:01:26;0.70;;;0.70;;
45128;SDS011;35512;56.312;101.728;2023-03-21T13:04:13;0.70;;;0.70;;
45128;SDS011;35512;56.312;101.728;2023-03-21T13:06:47;0.70;;;0.70;;
45128;SDS011;35512;56.312;101.728;2023-03-21T13:09:23;0.77;;;0.77;;
45128;SDS011;35512;56.312;101.728;2023-03-21T13:12:13;0.70;;;0.70;;
45128;SDS011;35512;56.312;101.728;2023-03-21T13:17:54;0.70;;;0.70;;
45128;SDS011;35512;56.312;101.728;2023-03-21T13:23:22;0.70;;;0.70;;
45128;SDS011;35512;56.312;101.728;2023-03-21T13:26:00;0.70;;;0.70;;
45128;SDS011;35512;56.312;101.728;2023-03-21T13:28:32;0.70;;;0.70;;
45128;SDS011;35512;56.312;101.728;2023-03-21T13:33:48;0.70;;;0.70;;
45128;SDS011;35512;56.312;101.728;2023-03-21T13:36:22;0.70;;;0.70;;
45128;SDS011;35512;56.312;101.728;2023-03-21T13:39:00;0.70;;;0.70;;
45128;SDS011;35512;56.312;101.728;2023-03-21T13:41:36;0.73;;;0.73;;
45128;SDS011;35512;56.312;101.728;2023-03-21T13:47:27;0.73;;;0.73;;
45128;SDS011;35512;56.312;101.728;2023-03-21T13:50:19;0.70;;;0.70;;
45128;SDS011;35512;56.312;101.728;2023-03-21T13:55:45;0.70;;;0.70;;
45128;SDS011;35512;56.312;101.728;2023-03-21T13:58:32;0.70;;;0.70;;
45128;SDS011;35512;56.312;101.728;2023-03-21T14:06:54;0.80;;;0.80;;
45128;SDS011;35512;56.312;101.728;2023-03-21T14:09:25;0.70;;;0.70;;
45128;SDS011;35512;56.312;101.728;2023-03-21T14:12:05;0.70;;;0.70;;
45128;SDS011;35512;56.312;101.728;2023-03-21T14:17:56;0.70;;;0.70;;
45128;SDS011;35512;56.312;101.728;2023-03-21T14:20:42;0.70;;;0.70;;
45128;SDS011;35512;56.312;101.728;2023-03-21T14:23:15;0.70;;;0.70;;
45128;SDS011;35512;56.312;101.728;2023-03-21T14:25:44;0.80;;;0.80;;
45128;SDS011;35512;56.312;101.728;2023-03-21T14:30:51;0.73;;;0.73;;
45128;SDS011;35512;56.312;101.728;2023-03-21T14:33:37;0.80;;;0.80;;
45128;SDS011;35512;56.312;101.728;2023-03-21T14:36:42;0.70;;;0.70;;
45128;SDS011;35512;56.312;101.728;2023-03-21T14:39:16;0.75;;;0.75;;
45128;SDS011;35512;56.312;101.728;2023-03-21T14:41:55;0.80;;;0.80;;
45128;SDS011;35512;56.312;101.728;2023-03-21T14:47:22;0.80;;;0.80;;
45128;SDS011;35512;56.312;101.728;2023-03-21T14:49:53;0.70;;;0.70;;
45128;SDS011;35512;56.312;101.728;2023-03-21T14:52:25;0.70;;;0.70;;
45128;SDS011;35512;56.312;101.728;2023-03-21T14:54:59;0.77;;;0.77;;
45128;SDS011;35512;56.312;101.728;2023-03-21T14:57:32;0.70;;;0.70;;
45128;SDS011;35512;56.312;101.728;2023-03-21T15:00:02;0.80;;;0.80;;
45128;SDS011;35512;56.312;101.728;2023-03-21T15:02:41;0.70;;;0.70;;
45128;SDS011;35512;56.312;101.728;2023-03-21T15:05:14;0.70;;;0.70;;
45128;SDS011;35512;56.312;101.728;2023-03-21T15:08:14;0.70;;;0.70;;
45128;SDS011;35512;56.312;101.728;2023-03-21T15:10:58;0.80;;;0.80;;
45128;SDS011;35512;56.312;101.728;2023-03-21T15:16:22;0.80;;;0.80;;
45128;SDS011;35512;56.312;101.728;2023-03-21T15:18:51;0.80;;;0.80;;
45128;SDS011;35512;56.312;101.728;2023-03-21T15:21:24;0.80;;;0.80;;
45128;SDS011;35512;56.312;101.728;2023-03-21T15:23:58;0.70;;;0.70;;
45128;SDS011;35512;56.312;101.728;2023-03-21T15:26:44;0.70;;;0.70;;
45128;SDS011;35512;56.312;101.728;2023-03-21T15:29:15;0.80;;;0.80;;
45128;SDS011;35512;56.312;101.728;2023-03-21T15:31:46;0.80;;;0.80;;
45128;SDS011;35512;56.312;101.728;2023-03-21T15:34:26;0.70;;;0.70;;
45128;SDS011;35512;56.312;101.728;2023-03-21T15:37:01;0.80;;;0.80;;
45128;SDS011;35512;56.312;101.728;2023-03-21T15:39:33;0.70;;;0.70;;
45128;SDS011;35512;56.312;101.728;2023-03-21T15:42:19;0.70;;;0.70;;
45128;SDS011;35512;56.312;101.728;2023-03-21T15:44:54;0.80;;;0.80;;
45128;SDS011;35512;56.312;101.728;2023-03-21T15:47:37;0.80;;;0.80;;
45128;SDS011;35512;56.312;101.728;2023-03-21T15:52:52;0.70;;;0.70;;
45128;SDS011;35512;56.312;101.728;2023-03-21T15:55:23;0.80;;;0.80;;
45128;SDS011;35512;56.312;101.728;2023-03-21T15:57:59;0.80;;;0.80;;
45128;SDS011;35512;56.312;101.728;2023-03-21T16:03:17;0.80;;;0.80;;
45128;SDS011;35512;56.312;101.728;2023-03-21T16:08:52;0.75;;;0.75;;
45128;SDS011;35512;56.312;101.728;2023-03-21T16:11:42;0.80;;;0.80;;
45128;SDS011;35512;56.312;101.728;2023-03-21T16:14:16;0.80;;;0.80;;
45128;SDS011;35512;56.312;101.728;2023-03-21T16:16:47;0.80;;;0.80;;
45128;SDS011;35512;56.312;101.728;2023-03-21T16:19:17;0.80;;;0.80;;
45128;SDS011;35512;56.312;101.728;2023-03-21T16:21:46;0.80;;;0.80;;
45128;SDS011;35512;56.312;101.728;2023-03-21T16:24:15;0.80;;;0.80;;
45128;SDS011;35512;56.312;101.728;2023-03-21T16:26:45;0.80;;;0.80;;
45128;SDS011;35512;56.312;101.728;2023-03-21T16:29:18;0.70;;;0.70;;
45128;SDS011;35512;56.312;101.728;2023-03-21T16:31:47;0.80;;;0.80;;
45128;SDS011;35512;56.312;101.728;2023-03-21T16:34:16;0.80;;;0.80;;
45128;SDS011;35512;56.312;101.728;2023-03-21T16:36:45;0.70;;;0.70;;
45128;SDS011;35512;56.312;101.728;2023-03-21T16:41:44;0.80;;;0.80;;
45128;SDS011;35512;56.312;101.728;2023-03-21T16:44:13;0.80;;;0.80;;
45128;SDS011;35512;56.312;101.728;2023-03-21T16:46:42;0.80;;;0.80;;
45128;SDS011;35512;56.312;101.728;2023-03-21T16:49:24;0.70;;;0.70;;
45128;SDS011;35512;56.312;101.728;2023-03-21T16:51:55;0.80;;;0.80;;
45128;SDS011;35512;56.312;101.728;2023-03-21T16:54:24;0.80;;;0.80;;
45128;SDS011;35512;56.312;101.728;2023-03-21T16:56:54;0.80;;;0.80;;
45128;SDS011;35512;56.312;101.728;2023-03-21T16:59:23;0.70;;;0.70;;
45128;SDS011;35512;56.312;101.728;2023-03-21T17:01:53;0.80;;;0.80;;
45128;SDS011;35512;56.312;101.728;2023-03-21T17:04:23;0.80;;;0.80;;
45128;SDS011;35512;56.312;101.728;2023-03-21T17:06:52;0.80;;;0.80;;
45128;SDS011;35512;56.312;101.728;2023-03-21T17:09:23;0.80;;;0.80;;
45128;SDS011;35512;56.312;101.728;2023-03-21T17:11:54;0.70;;;0.70;;